Terminal Aerodrome Forecast
Issued by NWS

Home | Current Version | Previous Version | Text Only | Print | Product List | Glossary On
Versions: 1 2 3 4 5 6 7 8 9 10 11 12 13 14 15 16 17 18 19 20 21 22 23 24 25 26 27 28 29 30 31 32 33 34 35 36 37 38 39
000
FTUS43 KDTX 290806 AAA
TAFYIP
TAF AMD
KYIP 290806Z 2908/3006 04005KT P6SM OVC035
     FM291300 03007KT 6SM -SHRA OVC035
     FM291900 06010KT P6SM OVC045
     FM300000 03004KT P6SM SCT200=

USA.gov is the U.S. government's official web portal to all federal, state and local government web resources and services.